createdAt,value
2023-05-13T00:02:08.508Z,17.08
2023-05-13T00:04:36.193Z,17.06
2023-05-13T00:07:03.710Z,17.25
2023-05-13T00:09:32.093Z,17.23
2023-05-13T00:12:00.397Z,17.30
2023-05-13T00:14:27.920Z,17.30
2023-05-13T00:16:55.702Z,17.09
2023-05-13T00:19:23.086Z,17.15
2023-05-13T00:21:51.100Z,17.11
2023-05-13T00:24:19.323Z,16.96
2023-05-13T00:26:46.872Z,17.08
2023-05-13T00:29:14.643Z,16.80
2023-05-13T00:31:42.303Z,16.75
2023-05-13T00:34:09.679Z,16.96
2023-05-13T00:36:37.004Z,17.08
2023-05-13T00:39:04.970Z,17.17
2023-05-13T00:41:32.569Z,17.09
2023-05-13T00:43:59.925Z,16.71
2023-05-13T00:46:33.319Z,16.03
2023-05-13T00:49:01.408Z,15.92
2023-05-13T00:51:28.704Z,15.91
2023-05-13T00:53:59.753Z,15.88
2023-05-13T00:56:27.485Z,15.74
2023-05-13T00:58:54.733Z,15.88
2023-05-13T01:02:21.896Z,16.27
2023-05-13T01:05:27.366Z,16.14
2023-05-13T01:08:28.726Z,16.59
2023-05-13T01:11:15.014Z,15.76
2023-05-13T01:13:47.243Z,15.46
2023-05-13T01:16:37.196Z,15.25
2023-05-13T01:19:26.841Z,15.41
2023-05-13T01:21:55.983Z,15.30
2023-05-13T01:24:24.335Z,15.03
2023-05-13T01:26:53.544Z,15.18
2023-05-13T01:29:21.894Z,15.73
2023-05-13T01:31:51.701Z,15.81
2023-05-13T01:34:24.004Z,15.73
2023-05-13T01:36:54.648Z,15.91
2023-05-13T01:39:25.749Z,15.57
2023-05-13T01:41:58.950Z,15.24
2023-05-13T01:44:26.502Z,15.54
2023-05-13T01:46:53.828Z,15.66
2023-05-13T01:49:21.931Z,15.56
2023-05-13T01:51:49.165Z,15.98
2023-05-13T01:54:16.555Z,16.26
2023-05-13T01:56:49.491Z,15.86
2023-05-13T01:59:16.753Z,15.30
2023-05-13T02:01:46.391Z,15.85
2023-05-13T02:04:13.815Z,15.45
2023-05-13T02:06:43.450Z,15.62
2023-05-13T02:09:10.911Z,15.17
2023-05-13T02:11:41.092Z,15.49
2023-05-13T02:14:08.675Z,15.74
2023-05-13T02:16:36.427Z,15.90
2023-05-13T02:19:07.586Z,15.77
2023-05-13T02:21:35.061Z,16.03
2023-05-13T02:24:02.742Z,16.10
2023-05-13T02:26:30.373Z,15.65
2023-05-13T02:29:03.120Z,15.91
2023-05-13T02:31:30.516Z,15.90
2023-05-13T02:33:57.969Z,16.05
2023-05-13T02:36:26.208Z,16.17
2023-05-13T02:38:54.017Z,16.26
2023-05-13T02:41:21.796Z,16.36
2023-05-13T02:43:50.041Z,16.30
2023-05-13T02:46:17.335Z,16.42
2023-05-13T02:48:46.178Z,16.57
2023-05-13T02:51:13.367Z,16.68
2023-05-13T02:53:41.281Z,16.79
2023-05-13T02:56:10.237Z,16.90
2023-05-13T02:58:37.671Z,16.08
2023-05-13T03:01:05.035Z,15.87
2023-05-13T03:03:32.311Z,15.53
2023-05-13T03:06:00.014Z,15.72
2023-05-13T03:08:27.344Z,15.89
2023-05-13T03:10:54.991Z,15.99
2023-05-13T03:13:22.581Z,16.06
2023-05-13T03:15:51.439Z,15.86
2023-05-13T03:18:19.105Z,15.98
2023-05-13T03:20:46.766Z,16.02
2023-05-13T03:23:16.569Z,16.05
2023-05-13T03:25:46.592Z,15.84
2023-05-13T03:28:14.221Z,16.02
2023-05-13T03:30:44.500Z,15.74
2023-05-13T03:33:18.647Z,15.67
2023-05-13T03:35:48.967Z,15.64
2023-05-13T03:38:18.835Z,15.76
2023-05-13T03:40:55.560Z,15.70
2023-05-13T03:43:23.267Z,15.73
2023-05-13T03:45:56.313Z,15.88
2023-05-13T03:48:25.355Z,15.54
2023-05-13T03:50:54.506Z,15.68
2023-05-13T03:53:22.715Z,15.76
2023-05-13T03:55:50.567Z,15.81
2023-05-13T03:58:19.032Z,15.79
2023-05-13T04:00:47.235Z,15.79
2023-05-13T04:03:17.371Z,15.73
2023-05-13T04:05:48.163Z,15.70
2023-05-13T04:08:16.399Z,15.85
2023-05-13T04:10:44.802Z,15.66
2023-05-13T04:13:12.433Z,15.69
2023-05-13T04:15:39.710Z,15.77
2023-05-13T04:18:07.693Z,15.80
2023-05-13T04:20:39.560Z,15.63
2023-05-13T04:23:07.845Z,15.78
2023-05-13T04:25:37.363Z,15.82
2023-05-13T04:28:05.884Z,15.58
2023-05-13T04:30:39.070Z,15.83
2023-05-13T04:33:07.033Z,15.91
2023-05-13T04:35:35.809Z,15.89
2023-05-13T04:38:06.481Z,16.03
2023-05-13T04:40:34.232Z,16.12
2023-05-13T04:43:09.330Z,15.99
2023-05-13T04:45:43.949Z,15.87
2023-05-13T04:48:13.833Z,15.98
2023-05-13T04:50:48.376Z,15.82
2023-05-13T04:53:19.719Z,15.91
2023-05-13T04:55:50.314Z,15.84
2023-05-13T04:58:17.608Z,16.03
2023-05-13T05:00:45.077Z,16.15
2023-05-13T05:03:13.527Z,15.95
2023-05-13T05:05:41.293Z,15.62
2023-05-13T05:08:09.871Z,15.75
2023-05-13T05:10:38.466Z,15.62
2023-05-13T05:13:11.092Z,15.52
2023-05-13T05:15:39.326Z,15.44
2023-05-13T05:18:08.129Z,15.75
2023-05-13T05:20:38.289Z,16.18
2023-05-13T05:23:15.329Z,15.20
2023-05-13T05:25:45.886Z,15.56
2023-05-13T05:28:13.512Z,15.97
2023-05-13T05:30:43.642Z,16.05
2023-05-13T05:33:31.435Z,15.30
2023-05-13T05:35:58.728Z,15.96
2023-05-13T05:38:26.416Z,16.48
2023-05-13T05:40:56.413Z,16.59
2023-05-13T05:43:23.806Z,16.84
2023-05-13T05:45:53.049Z,16.45
2023-05-13T05:48:21.359Z,16.63
2023-05-13T05:50:49.336Z,16.76
2023-05-13T05:53:25.522Z,16.81
2023-05-13T05:55:53.236Z,16.92
2023-05-13T05:58:21.334Z,16.46
2023-05-13T06:00:48.932Z,16.69
2023-05-13T06:03:16.814Z,16.84
2023-05-13T06:05:44.997Z,16.86
2023-05-13T06:08:12.796Z,16.93
2023-05-13T06:10:40.888Z,16.79
2023-05-13T06:13:08.667Z,16.99
2023-05-13T06:15:38.433Z,17.45
2023-05-13T06:18:06.417Z,17.03
2023-05-13T06:20:35.555Z,16.14
2023-05-13T06:23:03.221Z,16.20
2023-05-13T06:25:31.369Z,16.76
2023-05-13T06:28:00.834Z,16.92
2023-05-13T06:30:31.371Z,16.83
2023-05-13T06:33:02.007Z,16.70
2023-05-13T06:35:31.358Z,17.54
2023-05-13T06:38:04.731Z,18.34
2023-05-13T06:40:33.284Z,17.92
2023-05-13T06:43:00.587Z,18.68
2023-05-13T06:45:36.903Z,18.68
2023-05-13T06:48:04.901Z,18.78
2023-05-13T06:50:32.278Z,18.87
2023-05-13T06:53:02.247Z,18.53
2023-05-13T06:55:29.673Z,18.74
2023-05-13T06:57:56.920Z,19.45
2023-05-13T07:00:24.616Z,20.15
2023-05-13T07:02:52.147Z,20.01
2023-05-13T07:05:19.598Z,20.29
2023-05-13T07:07:46.978Z,20.73
2023-05-13T07:10:16.326Z,21.05
2023-05-13T07:12:43.989Z,21.35
2023-05-13T07:15:11.986Z,21.75
2023-05-13T07:17:40.579Z,22.27
2023-05-13T07:20:10.167Z,22.80
2023-05-13T07:22:37.709Z,23.01
2023-05-13T07:25:06.834Z,22.97
2023-05-13T07:27:36.495Z,21.36
2023-05-13T07:30:04.941Z,22.01
2023-05-13T07:32:37.014Z,21.69
2023-05-13T07:35:05.719Z,21.54
2023-05-13T07:37:32.960Z,21.37
2023-05-13T07:40:00.129Z,20.13
2023-05-13T07:42:29.855Z,19.31
2023-05-13T07:44:57.208Z,19.03
2023-05-13T07:47:24.561Z,18.68
2023-05-13T07:49:51.790Z,19.31
2023-05-13T07:52:19.182Z,19.59
2023-05-13T07:54:46.492Z,19.19
2023-05-13T07:57:13.707Z,19.94
2023-05-13T07:59:43.324Z,20.26
2023-05-13T08:02:12.661Z,20.31
2023-05-13T08:04:40.305Z,20.50
2023-05-13T08:07:08.429Z,20.49
2023-05-13T08:09:35.647Z,19.79
2023-05-13T08:12:02.981Z,19.71
2023-05-13T08:14:30.395Z,19.72
2023-05-13T08:16:58.724Z,19.72
2023-05-13T08:19:26.404Z,19.07
2023-05-13T08:21:54.466Z,18.78
2023-05-13T08:24:22.377Z,18.89
2023-05-13T08:26:51.049Z,19.02
2023-05-13T08:29:19.071Z,19.15
2023-05-13T08:31:46.588Z,18.93
2023-05-13T08:34:13.920Z,19.24
2023-05-13T08:36:41.228Z,19.83
2023-05-13T08:39:09.821Z,19.88
2023-05-13T08:41:38.328Z,20.24
2023-05-13T08:44:07.529Z,19.56
2023-05-13T08:46:38.548Z,19.70
2023-05-13T08:49:07.851Z,19.31
2023-05-13T08:51:35.752Z,19.46
2023-05-13T08:54:04.942Z,18.90
2023-05-13T08:56:32.371Z,18.66
2023-05-13T08:58:59.573Z,18.80
2023-05-13T09:01:27.709Z,18.35
2023-05-13T09:04:02.917Z,18.70
2023-05-13T09:06:30.780Z,17.97
2023-05-13T09:08:58.475Z,18.53
2023-05-13T09:11:26.858Z,18.85
2023-05-13T09:14:03.693Z,19.06
2023-05-13T09:16:32.763Z,19.35
2023-05-13T09:19:05.358Z,19.36
2023-05-13T09:21:43.764Z,20.04
2023-05-13T09:24:21.409Z,20.52
2023-05-13T09:26:52.100Z,20.93
2023-05-13T09:29:24.561Z,21.26
2023-05-13T09:31:57.889Z,21.63
2023-05-13T09:34:34.301Z,21.58
2023-05-13T09:37:03.963Z,21.97
2023-05-13T09:39:41.802Z,21.87
2023-05-13T09:42:19.738Z,22.19
2023-05-13T09:44:48.928Z,22.20
2023-05-13T09:47:17.892Z,21.04
2023-05-13T09:49:55.072Z,20.77
2023-05-13T09:52:22.684Z,20.47
2023-05-13T09:54:49.992Z,19.78
2023-05-13T09:57:21.311Z,20.40
2023-05-13T09:59:48.667Z,20.83
2023-05-13T10:02:18.409Z,20.92
2023-05-13T10:04:47.086Z,21.71
2023-05-13T10:07:15.564Z,22.65
2023-05-13T10:09:46.155Z,22.75
2023-05-13T10:12:15.425Z,22.42
2023-05-13T10:14:44.315Z,21.47
2023-05-13T10:17:15.388Z,20.26
2023-05-13T10:19:43.169Z,19.93
2023-05-13T10:22:13.210Z,19.70
2023-05-13T10:24:44.757Z,19.88
2023-05-13T10:27:13.689Z,19.25
2023-05-13T10:29:44.697Z,19.56
2023-05-13T10:32:13.926Z,20.91
2023-05-13T10:34:44.976Z,21.29
2023-05-13T10:38:17.330Z,21.50
2023-05-13T10:41:08.100Z,22.36
2023-05-13T10:43:39.148Z,22.96
2023-05-13T10:46:12.742Z,22.21
2023-05-13T10:48:56.463Z,21.83
2023-05-13T10:51:26.012Z,20.83
2023-05-13T10:53:59.086Z,19.17
2023-05-13T10:56:29.092Z,19.56
2023-05-13T10:59:05.736Z,19.88
2023-05-13T11:01:43.287Z,20.40
2023-05-13T11:04:22.775Z,20.40
2023-05-13T11:06:51.866Z,19.35
2023-05-13T11:09:22.231Z,19.36
2023-05-13T11:11:55.965Z,19.11
2023-05-13T11:14:27.320Z,19.83
2023-05-13T11:17:10.119Z,20.94
2023-05-13T11:19:47.970Z,21.07
2023-05-13T11:22:20.543Z,21.24
2023-05-13T11:25:09.304Z,20.33
2023-05-13T11:28:01.647Z,20.59
2023-05-13T11:30:29.186Z,21.25
2023-05-13T11:32:59.372Z,22.12
2023-05-13T11:35:32.982Z,21.54
2023-05-13T11:38:06.727Z,21.85
2023-05-13T11:40:37.223Z,21.37
2023-05-13T11:43:06.400Z,20.91
2023-05-13T11:45:39.095Z,21.45
2023-05-13T11:48:24.400Z,21.56
2023-05-13T11:50:53.409Z,21.71
2023-05-13T11:53:23.706Z,21.34
2023-05-13T11:55:51.692Z,21.19
2023-05-13T11:58:21.817Z,21.25
2023-05-13T12:00:49.603Z,21.36
2023-05-13T12:03:17.630Z,20.87
2023-05-13T12:05:45.651Z,21.47
2023-05-13T12:08:13.361Z,21.66
2023-05-13T12:10:45.714Z,22.04
2023-05-13T12:13:13.891Z,22.68
2023-05-13T12:15:42.592Z,22.61
2023-05-13T12:18:10.004Z,22.30
2023-05-13T12:20:38.777Z,22.29
2023-05-13T12:23:07.134Z,21.87
2023-05-13T12:25:51.507Z,21.79
2023-05-13T12:28:27.305Z,21.45
2023-05-13T12:31:05.867Z,21.50
2023-05-13T12:33:46.912Z,21.53
2023-05-13T12:36:26.051Z,21.73
2023-05-13T12:39:11.703Z,22.22
2023-05-13T12:41:42.473Z,21.14
2023-05-13T12:44:14.509Z,21.61
2023-05-13T12:46:54.319Z,21.31
2023-05-13T12:49:22.445Z,22.74
2023-05-13T12:51:51.711Z,24.08
2023-05-13T12:54:19.396Z,24.63
2023-05-13T12:56:46.923Z,25.56
2023-05-13T12:59:14.464Z,26.24
2023-05-13T13:01:42.948Z,25.64
2023-05-13T13:04:10.817Z,25.12
2023-05-13T13:06:38.308Z,24.84
2023-05-13T13:09:06.042Z,23.36
2023-05-13T13:11:33.875Z,22.50
2023-05-13T13:14:01.443Z,21.87
2023-05-13T13:16:29.316Z,21.50
2023-05-13T13:19:01.529Z,21.14
2023-05-13T13:21:29.350Z,20.74
2023-05-13T13:23:57.077Z,20.15
2023-05-13T13:26:25.446Z,20.18
2023-05-13T13:28:53.446Z,20.37
2023-05-13T13:31:21.358Z,20.70
2023-05-13T13:33:49.127Z,21.22
2023-05-13T13:36:17.092Z,21.20
2023-05-13T13:38:44.565Z,21.37
2023-05-13T13:41:11.974Z,21.65
2023-05-13T13:43:39.179Z,21.50
2023-05-13T13:46:06.457Z,20.75
2023-05-13T13:48:33.739Z,20.45
2023-05-13T13:51:01.176Z,20.75
2023-05-13T13:53:28.487Z,20.80
2023-05-13T13:55:55.716Z,21.67
2023-05-13T13:58:23.006Z,20.29
2023-05-13T14:00:50.320Z,20.86
2023-05-13T14:03:17.991Z,21.47
2023-05-13T14:05:45.984Z,21.20
2023-05-13T14:08:13.484Z,21.17
2023-05-13T14:10:41.221Z,20.79
2023-05-13T14:13:08.584Z,20.73
2023-05-13T14:15:39.223Z,19.84
2023-05-13T14:18:07.884Z,19.59
2023-05-13T14:20:36.746Z,19.29
2023-05-13T14:23:05.513Z,19.20
2023-05-13T14:25:34.088Z,19.34
2023-05-13T14:28:02.301Z,18.94
2023-05-13T14:30:30.872Z,18.62
2023-05-13T14:33:00.598Z,18.82
2023-05-13T14:35:28.678Z,19.00
2023-05-13T14:37:56.131Z,19.51
2023-05-13T14:40:24.121Z,18.67
2023-05-13T14:42:51.741Z,19.15
2023-05-13T14:45:19.195Z,20.36
2023-05-13T14:47:46.454Z,21.30
2023-05-13T14:50:15.178Z,21.39
2023-05-13T14:52:42.493Z,21.51
2023-05-13T14:55:10.845Z,21.55
2023-05-13T14:57:39.176Z,22.52
2023-05-13T15:00:07.765Z,22.81
2023-05-13T15:02:35.735Z,23.04
2023-05-13T15:05:03.662Z,23.64
2023-05-13T15:07:31.738Z,23.82
2023-05-13T15:10:00.048Z,23.65
2023-05-13T15:12:30.837Z,22.99
2023-05-13T15:14:59.101Z,22.90
2023-05-13T15:17:27.405Z,23.59
2023-05-13T15:19:54.796Z,24.08
2023-05-13T15:22:22.687Z,23.62
2023-05-13T15:24:50.804Z,22.62
2023-05-13T15:27:19.571Z,22.35
2023-05-13T15:29:49.475Z,21.90
2023-05-13T15:32:16.932Z,22.12
2023-05-13T15:34:44.308Z,21.57
2023-05-13T15:37:11.772Z,21.61
2023-05-13T15:39:39.101Z,21.59
2023-05-13T15:42:09.599Z,21.72
2023-05-13T15:44:37.263Z,21.37
2023-05-13T15:47:06.264Z,21.11
2023-05-13T15:49:33.630Z,21.59
2023-05-13T15:52:01.615Z,21.58
2023-05-13T15:54:29.959Z,21.79
2023-05-13T15:57:00.548Z,21.66
2023-05-13T15:59:27.978Z,22.24
2023-05-13T16:01:55.349Z,22.54
2023-05-13T16:04:24.276Z,22.59
2023-05-13T16:06:52.272Z,22.41
2023-05-13T16:09:19.703Z,21.90
2023-05-13T16:11:47.868Z,21.13
2023-05-13T16:14:19.396Z,20.70
2023-05-13T16:16:46.984Z,20.47
2023-05-13T16:19:17.703Z,20.19
2023-05-13T16:21:45.953Z,20.38
2023-05-13T16:24:13.765Z,20.55
2023-05-13T16:26:41.739Z,20.11
2023-05-13T16:29:09.585Z,20.23
2023-05-13T16:31:37.371Z,19.79
2023-05-13T16:34:04.687Z,19.88
2023-05-13T16:36:31.987Z,20.17
2023-05-13T16:38:59.975Z,19.85
2023-05-13T16:41:27.441Z,20.07
2023-05-13T16:43:57.723Z,20.15
2023-05-13T16:46:24.987Z,20.32
2023-05-13T16:48:52.270Z,20.68
2023-05-13T16:51:22.457Z,20.74
2023-05-13T16:53:49.611Z,20.38
2023-05-13T16:56:16.852Z,20.17
2023-05-13T16:58:44.050Z,20.14
2023-05-13T17:01:11.808Z,20.24
2023-05-13T17:03:39.522Z,20.12
2023-05-13T17:06:07.682Z,19.84
2023-05-13T17:08:34.933Z,20.13
2023-05-13T17:11:02.172Z,20.26
2023-05-13T17:13:32.286Z,20.26
2023-05-13T17:15:59.551Z,20.35
2023-05-13T17:18:29.288Z,20.38
2023-05-13T17:20:56.703Z,19.96
2023-05-13T17:23:24.417Z,20.21
2023-05-13T17:25:52.508Z,20.17
2023-05-13T17:28:26.733Z,19.87
2023-05-13T17:30:54.105Z,20.32
2023-05-13T17:33:27.832Z,20.05
2023-05-13T17:35:55.040Z,20.34
2023-05-13T17:38:22.680Z,20.44
2023-05-13T17:40:51.622Z,20.46
2023-05-13T17:43:19.116Z,20.28
2023-05-13T17:45:46.393Z,20.26
2023-05-13T17:48:13.949Z,20.22
2023-05-13T17:50:46.491Z,20.26
2023-05-13T17:53:13.630Z,20.60
2023-05-13T17:55:41.352Z,20.73
2023-05-13T17:58:08.685Z,20.67
2023-05-13T18:00:36.009Z,20.80
2023-05-13T18:03:03.286Z,20.54
2023-05-13T18:05:33.223Z,19.86
2023-05-13T18:08:03.538Z,19.93
2023-05-13T18:10:30.913Z,20.18
2023-05-13T18:12:58.255Z,20.33
2023-05-13T18:15:25.617Z,20.19
2023-05-13T18:17:52.909Z,20.18
2023-05-13T18:20:20.515Z,20.11
2023-05-13T18:22:47.970Z,19.88
2023-05-13T18:25:15.216Z,20.22
2023-05-13T18:27:45.500Z,20.54
2023-05-13T18:30:13.927Z,20.40
2023-05-13T18:32:44.676Z,20.31
2023-05-13T18:35:12.008Z,20.28
2023-05-13T18:37:39.274Z,20.26
2023-05-13T18:40:08.107Z,20.33
2023-05-13T18:42:40.044Z,20.22
2023-05-13T18:45:10.129Z,19.97
2023-05-13T18:47:40.363Z,19.57
2023-05-13T18:50:11.056Z,19.53
2023-05-13T18:52:41.415Z,19.40
2023-05-13T18:55:09.061Z,19.14
2023-05-13T18:57:36.327Z,19.29
2023-05-13T19:00:04.430Z,19.06
2023-05-13T19:02:32.757Z,18.76
2023-05-13T19:05:03.168Z,18.58
2023-05-13T19:07:30.347Z,18.31
2023-05-13T19:10:00.628Z,18.25
2023-05-13T19:12:30.669Z,17.82
2023-05-13T19:14:57.824Z,18.00
2023-05-13T19:17:25.141Z,17.92
2023-05-13T19:19:52.351Z,18.02
2023-05-13T19:22:21.825Z,17.92
2023-05-13T19:24:49.091Z,18.03
2023-05-13T19:27:16.285Z,17.82
2023-05-13T19:29:43.417Z,17.83
2023-05-13T19:32:10.988Z,17.71
2023-05-13T19:34:38.163Z,17.51
2023-05-13T19:37:06.372Z,16.95
2023-05-13T19:39:33.668Z,17.07
2023-05-13T19:42:04.193Z,17.03
2023-05-13T19:44:31.900Z,16.77
2023-05-13T19:46:59.722Z,16.72
2023-05-13T19:49:27.060Z,16.74
2023-05-13T19:51:54.296Z,16.38
2023-05-13T19:54:21.420Z,16.36
2023-05-13T19:56:48.659Z,16.26
2023-05-13T19:59:16.170Z,16.03
2023-05-13T20:01:43.686Z,15.99
2023-05-13T20:04:11.390Z,16.03
2023-05-13T20:06:39.592Z,15.81
2023-05-13T20:09:10.431Z,15.74
2023-05-13T20:11:37.809Z,15.90
2023-05-13T20:14:05.238Z,16.25
2023-05-13T20:16:33.640Z,16.30
2023-05-13T20:19:01.048Z,16.72
2023-05-13T20:21:33.587Z,16.97
2023-05-13T20:24:00.787Z,17.03
2023-05-13T20:26:27.981Z,16.69
2023-05-13T20:28:55.311Z,16.85
2023-05-13T20:31:28.553Z,16.97
2023-05-13T20:33:55.863Z,16.71
2023-05-13T20:36:23.102Z,16.44
2023-05-13T20:38:50.345Z,16.72
2023-05-13T20:41:17.520Z,16.85
2023-05-13T20:43:47.242Z,17.04
2023-05-13T20:46:16.968Z,17.19
2023-05-13T20:48:44.432Z,17.18
2023-05-13T20:51:11.825Z,17.59
2023-05-13T20:53:39.179Z,18.03
2023-05-13T20:56:09.788Z,17.88
2023-05-13T20:58:37.251Z,17.80
2023-05-13T21:01:05.453Z,17.86
2023-05-13T21:03:33.380Z,17.71
2023-05-13T21:06:01.204Z,17.39
2023-05-13T21:08:28.550Z,17.32
2023-05-13T21:10:59.332Z,17.44
2023-05-13T21:13:27.207Z,17.39
2023-05-13T21:15:55.620Z,17.38
2023-05-13T21:18:23.939Z,17.30
2023-05-13T21:20:51.612Z,17.32
2023-05-13T21:23:20.667Z,17.37
2023-05-13T21:25:48.322Z,17.31
2023-05-13T21:28:18.458Z,17.34
2023-05-13T21:30:46.237Z,17.32
2023-05-13T21:33:13.709Z,17.38
2023-05-13T21:35:41.065Z,17.32
2023-05-13T21:38:12.154Z,17.37
2023-05-13T21:40:46.075Z,17.42
2023-05-13T21:43:13.284Z,17.36
2023-05-13T21:45:40.794Z,17.44
2023-05-13T21:48:08.483Z,17.51
2023-05-13T21:50:35.972Z,17.56
2023-05-13T21:53:04.345Z,17.58
2023-05-13T21:55:34.958Z,17.43
2023-05-13T21:58:03.178Z,17.51
2023-05-13T22:00:31.737Z,17.53
2023-05-13T22:03:01.479Z,17.40
2023-05-13T22:05:28.900Z,17.43
2023-05-13T22:07:56.655Z,17.47
2023-05-13T22:10:24.695Z,17.26
2023-05-13T22:12:52.568Z,17.23
2023-05-13T22:15:21.417Z,17.32
2023-05-13T22:17:50.650Z,17.16
2023-05-13T22:20:18.138Z,17.02
2023-05-13T22:22:46.106Z,17.08
2023-05-13T22:25:14.141Z,17.01
2023-05-13T22:27:41.755Z,17.09
2023-05-13T22:30:09.834Z,17.13
2023-05-13T22:32:38.408Z,17.01
2023-05-13T22:35:07.202Z,16.95
2023-05-13T22:37:34.550Z,16.91
2023-05-13T22:40:02.179Z,17.04
2023-05-13T22:42:29.662Z,17.09
2023-05-13T22:44:56.974Z,17.20
2023-05-13T22:47:24.308Z,17.21
2023-05-13T22:49:51.557Z,17.37
2023-05-13T22:52:18.862Z,17.22
2023-05-13T22:54:46.067Z,17.31
2023-05-13T22:57:13.266Z,17.50
2023-05-13T22:59:40.907Z,17.10
2023-05-13T23:02:12.976Z,16.88
2023-05-13T23:04:40.336Z,16.85
2023-05-13T23:07:08.467Z,16.82
2023-05-13T23:09:36.189Z,16.67
2023-05-13T23:12:03.747Z,16.73
2023-05-13T23:14:31.036Z,16.69
2023-05-13T23:16:58.274Z,16.77
2023-05-13T23:19:26.203Z,16.69
2023-05-13T23:21:54.183Z,16.86
2023-05-13T23:24:22.052Z,17.12
2023-05-13T23:26:49.884Z,17.25
2023-05-13T23:29:17.814Z,16.98
2023-05-13T23:31:45.523Z,17.07
2023-05-13T23:34:12.901Z,17.25
2023-05-13T23:36:40.528Z,16.98
2023-05-13T23:39:08.070Z,17.05
2023-05-13T23:41:36.036Z,17.09
2023-05-13T23:44:03.728Z,17.11
2023-05-13T23:46:32.337Z,17.19
2023-05-13T23:48:59.821Z,17.22
2023-05-13T23:51:27.200Z,17.10
2023-05-13T23:53:55.477Z,17.08
2023-05-13T23:56:22.828Z,16.86
2023-05-13T23:58:50.076Z,16.79
